Terminal Aerodrome Forecast
Issued by NWS

Home | Current Version | Previous Version | Text Only | Print | Product List | Glossary On
Versions: 1 2 3 4 5 6 7 8 9 10 11 12 13 14 15 16 17 18 19 20 21 22 23 24 25 26 27 28
000
FTUS44 KOUN 172334
TAFPNC
TAF
KPNC 172334Z 1800/1824 11009KT 6SM -RA OVC040
      TEMPO 1800/1802 3SM -RA BKN015
     FM180200 10010KT 3SM -DZ BR OVC010
     FM180500 10007KT 2SM -DZ BR OVC004
     FM181800 01005KT 4SM -DZ BR OVC012=

USA.gov is the U.S. government's official web portal to all federal, state and local government web resources and services.